»·PEaware :: N80507 KEUG-KOLM

N80507 :: KEUG-KOLM

FLIGHT INFORMATION

Flight Status: Arrived
Operator: Privately registered:
United States
More flights under this callsign
Pilot: Michael H. (17183)
Aircraft: CESSNA 172 SKYHAWK
(C172)
More flights by this aircraft type
Origin: KEUG Mahlon Sweet
United States
Destination: KOLM Olympia
United States
More flights between these airports :: More routes between these airports
Route: +CVO V495 UBG V165 OLM
File this flight plan on PilotEdge
Remarks:
Altitude:
(Current/Filed)
8,000ft
Speed:
(Current/Filed)
120kts
Departed: 25-Aug-18 03:21 PM
Arrived: 25-Aug-18 05:15 PM
Distance/Time
Traveled:
172nm/1:54
Distance/Time
To Go:
Arrived

Flight Plot

Page will automatically refresh every two minutes.

Flight plan parsing failed; only flown route is shown


Map Options




Map Legend


Flown Route
Filed Route
Departure Airport
Arrival Airport
Navaid (VOR, NDB)
Fix

Horizontal Profiles

Position Reports

Time Latitude Longitude Heading Altitude Ground
Speed
25-Aug-18 15:02 44.123728 -123.210662 209 364ft 0kts
25-Aug-18 15:03 44.123728 -123.210662 209 364ft 0kts
25-Aug-18 15:04 44.123728 -123.210662 209 364ft 0kts
25-Aug-18 15:05 44.123728 -123.210662 209 364ft 0kts
25-Aug-18 15:06 44.123728 -123.210662 209 364ft 0kts
25-Aug-18 15:07 44.123728 -123.210662 209 364ft 0kts
25-Aug-18 15:08 44.123728 -123.210662 209 364ft 0kts
25-Aug-18 15:09 44.123728 -123.210662 209 364ft 0kts
25-Aug-18 15:10 44.123728 -123.210662 209 364ft 0kts
25-Aug-18 15:11 44.123644 -123.210866 245 364ft 1kts
25-Aug-18 15:12 44.125235 -123.210411 28 361ft 15kts
25-Aug-18 15:13 44.124805 -123.204149 179 365ft 17kts
25-Aug-18 15:14 44.121040 -123.204106 178 369ft 16kts
25-Aug-18 15:15 44.116665 -123.203750 95 371ft 0kts
25-Aug-18 15:16 44.116665 -123.203749 93 371ft 0kts
25-Aug-18 15:17 44.116665 -123.203749 93 371ft 0kts
25-Aug-18 15:18 44.116665 -123.203749 93 371ft 0kts
25-Aug-18 15:19 44.116665 -123.203749 93 371ft 0kts
25-Aug-18 15:20 44.116665 -123.203749 93 371ft 0kts
25-Aug-18 15:21 44.116661 -123.203669 93 371ft 3kts
25-Aug-18 15:22 44.122881 -123.202398 2 483ft 68kts
25-Aug-18 15:23 44.142307 -123.198438 11 1222ft 75kts
25-Aug-18 15:24 44.162791 -123.194826 3 1992ft 74kts
25-Aug-18 15:25 44.183146 -123.197059 348 2699ft 76kts
25-Aug-18 15:26 44.202878 -123.206128 345 3406ft 74kts
25-Aug-18 15:27 44.222219 -123.216521 333 4092ft 77kts
25-Aug-18 15:28 44.242005 -123.226406 348 4765ft 76kts
25-Aug-18 15:29 44.262427 -123.233309 346 5403ft 76kts
25-Aug-18 15:30 44.282619 -123.241469 352 5998ft 76kts
25-Aug-18 15:31 44.303518 -123.244793 353 6578ft 75kts
25-Aug-18 15:32 44.324290 -123.248745 2 7119ft 75kts
25-Aug-18 15:33 44.345048 -123.252185 349 7655ft 75kts
25-Aug-18 15:34 44.365482 -123.259204 347 8175ft 76kts
25-Aug-18 15:35 44.387710 -123.264023 358 8209ft 81kts
25-Aug-18 15:36 44.410848 -123.268372 345 8224ft 91kts
25-Aug-18 15:37 44.436373 -123.278162 352 8168ft 95kts
25-Aug-18 15:38 44.462890 -123.282876 353 8137ft 96kts
25-Aug-18 15:39 44.488736 -123.292953 349 8114ft 96kts
25-Aug-18 15:40 44.513552 -123.284103 15 8151ft 90kts
25-Aug-18 15:41 44.538456 -123.275232 11 8144ft 92kts
25-Aug-18 15:42 44.560955 -123.257383 32 8151ft 93kts
25-Aug-18 15:43 44.585460 -123.247168 6 8159ft 92kts
25-Aug-18 15:44 44.609938 -123.236270 19 8157ft 93kts
25-Aug-18 15:45 44.633968 -123.222814 21 8165ft 93kts
25-Aug-18 15:46 44.658352 -123.210312 17 8157ft 94kts
25-Aug-18 15:47 44.682954 -123.198023 17 8153ft 94kts
25-Aug-18 15:48 44.707812 -123.185955 17 8099ft 95kts
25-Aug-18 15:49 44.731716 -123.170274 22 8039ft 94kts
25-Aug-18 15:50 44.756271 -123.157581 12 7983ft 94kts
25-Aug-18 15:51 44.781115 -123.151568 14 8027ft 88kts
25-Aug-18 15:52 44.803602 -123.138179 15 8073ft 89kts
25-Aug-18 15:53 44.827606 -123.133890 356 8180ft 98kts
25-Aug-18 15:54 44.855822 -123.125369 5 8101ft 113kts
25-Aug-18 15:55 44.885636 -123.117650 9 8005ft 97kts
25-Aug-18 15:56 44.911576 -123.113865 349 8009ft 90kts
25-Aug-18 15:57 44.935074 -123.110107 7 8110ft 86kts
25-Aug-18 15:58 44.958286 -123.100927 11 8146ft 89kts
25-Aug-18 15:59 44.981852 -123.094128 11 8189ft 88kts
25-Aug-18 16:00 45.006249 -123.086248 6 8137ft 93kts
25-Aug-18 16:01 45.031787 -123.080320 6 8090ft 93kts
25-Aug-18 16:02 45.057070 -123.073128 9 8062ft 91kts
25-Aug-18 16:03 45.081634 -123.063520 11 8032ft 91kts
25-Aug-18 16:04 45.104649 -123.050579 18 8061ft 88kts
25-Aug-18 16:05 45.128491 -123.043586 358 8088ft 89kts
25-Aug-18 16:06 45.153695 -123.041379 5 8146ft 92kts
25-Aug-18 16:07 45.180553 -123.033663 12 8033ft 99kts
25-Aug-18 16:08 45.207054 -123.021781 14 7911ft 100kts
25-Aug-18 16:09 45.231906 -123.013236 6 8033ft 90kts
25-Aug-18 16:10 45.255604 -123.000793 1 8082ft 90kts
25-Aug-18 16:11 45.281040 -123.000449 7 8080ft 97kts
25-Aug-18 16:12 45.307264 -122.991228 4 8081ft 98kts
25-Aug-18 16:13 45.334628 -122.986214 7 8046ft 101kts
25-Aug-18 16:14 45.362146 -122.978655 358 8013ft 101kts
25-Aug-18 16:15 45.389583 -122.981802 353 7976ft 102kts
25-Aug-18 16:16 45.417730 -122.981830 344 7963ft 100kts
25-Aug-18 16:17 45.445211 -122.988307 344 7960ft 101kts
25-Aug-18 16:18 45.473343 -122.991635 352 7964ft 103kts
25-Aug-18 16:19 45.501706 -122.992571 346 7972ft 101kts
25-Aug-18 16:20 45.530151 -122.992709 346 7976ft 101kts
25-Aug-18 16:21 45.557722 -122.998578 342 7983ft 100kts
25-Aug-18 16:22 45.585714 -123.002071 345 7986ft 101kts
25-Aug-18 16:23 45.613451 -123.007482 347 7980ft 102kts
25-Aug-18 16:24 45.641786 -123.012705 348 7956ft 106kts
25-Aug-18 16:25 45.670679 -123.018591 347 7931ft 109kts
25-Aug-18 16:26 45.699541 -123.018418 347 7907ft 113kts
25-Aug-18 16:27 45.729337 -123.021189 353 7942ft 115kts
25-Aug-18 16:28 45.757982 -123.026831 345 7994ft 105kts
25-Aug-18 16:29 45.784305 -123.037329 359 7996ft 91kts
25-Aug-18 16:30 45.808858 -123.035397 2 7980ft 92kts
25-Aug-18 16:31 45.832605 -123.035037 346 7997ft 90kts
25-Aug-18 16:32 45.855508 -123.044466 355 8008ft 89kts
25-Aug-18 16:33 45.878077 -123.042810 358 8004ft 91kts
25-Aug-18 16:34 45.900843 -123.043764 354 8013ft 90kts
25-Aug-18 16:35 45.926192 -123.043620 357 8014ft 92kts
25-Aug-18 16:36 45.951545 -123.043946 352 8018ft 92kts
25-Aug-18 16:37 45.975606 -123.047453 338 8023ft 90kts
25-Aug-18 16:38 46.000094 -123.053392 352 8007ft 95kts
25-Aug-18 16:39 46.025780 -123.055800 352 8013ft 95kts
25-Aug-18 16:40 46.052003 -123.056705 343 8036ft 93kts
25-Aug-18 16:41 46.077187 -123.064358 349 8038ft 96kts
25-Aug-18 16:42 46.102927 -123.065934 346 8074ft 94kts
25-Aug-18 16:43 46.127534 -123.074534 351 8058ft 99kts
25-Aug-18 16:44 46.155297 -123.068462 6 8034ft 104kts
25-Aug-18 16:45 46.182912 -123.062394 354 7998ft 102kts
25-Aug-18 16:46 46.210534 -123.062263 347 7990ft 99kts
25-Aug-18 16:47 46.237005 -123.069058 335 7974ft 95kts
25-Aug-18 16:48 46.259491 -123.085732 324 7948ft 94kts
25-Aug-18 16:49 46.285392 -123.085184 355 8059ft 93kts
25-Aug-18 16:50 46.312077 -123.081990 349 8055ft 97kts
25-Aug-18 16:51 46.338075 -123.086506 351 8070ft 100kts
25-Aug-18 16:52 46.365260 -123.086459 348 8121ft 98kts
25-Aug-18 16:53 46.392684 -123.090191 347 8079ft 103kts
25-Aug-18 16:54 46.420235 -123.096161 334 8061ft 99kts
25-Aug-18 16:55 46.448026 -123.083793 11 8003ft 112kts
25-Aug-18 16:56 46.476532 -123.072181 353 7986ft 106kts
25-Aug-18 16:57 46.505069 -123.070744 6 7961ft 111kts
25-Aug-18 16:58 46.533664 -123.057797 9 7962ft 111kts
25-Aug-18 16:59 46.561515 -123.037055 25 7952ft 116kts
25-Aug-18 17:00 46.590443 -123.021909 5 7941ft 110kts
25-Aug-18 17:01 46.619236 -123.010878 3 7815ft 106kts
25-Aug-18 17:02 46.645795 -123.004069 346 7098ft 100kts
25-Aug-18 17:03 46.672977 -123.004261 352 6286ft 103kts
25-Aug-18 17:04 46.701195 -122.998950 6 5505ft 105kts
25-Aug-18 17:05 46.728670 -122.986718 3 4777ft 102kts
25-Aug-18 17:06 46.755841 -122.979676 8 4082ft 99kts
25-Aug-18 17:07 46.781965 -122.971881 13 3489ft 88kts
25-Aug-18 17:08 46.806350 -122.960920 14 2854ft 91kts
25-Aug-18 17:09 46.830613 -122.950122 18 2260ft 91kts
25-Aug-18 17:10 46.854972 -122.940170 15 1713ft 90kts
25-Aug-18 17:11 46.876924 -122.932256 10 1706ft 80kts
25-Aug-18 17:12 46.898988 -122.926157 21 1602ft 85kts
25-Aug-18 17:13 46.923066 -122.917211 7 1221ft 92kts
25-Aug-18 17:14 46.948795 -122.910057 6 477ft 94kts
25-Aug-18 17:15 46.970408 -122.904132 12 201ft 50kts
25-Aug-18 17:16 46.975915 -122.900886 24 196ft 0kts
25-Aug-18 17:17 46.977364 -122.900032 337 193ft 12kts
25-Aug-18 17:18 46.977847 -122.899917 139 192ft 0kts

Navigation Log

Ident Type
Flight plan parsing failed, navigation log unavailable